createdAt,value
2019-01-27T00:00:49.523Z,11.50
2019-01-27T00:03:19.107Z,11.33
2019-01-27T00:05:48.496Z,11.47
2019-01-27T00:08:18.001Z,11.63
2019-01-27T00:10:47.734Z,10.83
2019-01-27T00:13:17.408Z,12.53
2019-01-27T00:15:46.955Z,11.37
2019-01-27T00:18:16.218Z,12.57
2019-01-27T00:20:45.900Z,12.57
2019-01-27T00:23:15.227Z,11.87
2019-01-27T00:25:44.769Z,11.40
2019-01-27T00:28:15.507Z,12.07
2019-01-27T00:30:45.344Z,10.57
2019-01-27T00:33:14.716Z,11.53
2019-01-27T00:35:44.012Z,11.17
2019-01-27T00:38:13.264Z,10.80
2019-01-27T00:40:42.540Z,12.03
2019-01-27T00:43:11.837Z,12.27
2019-01-27T00:45:41.085Z,12.07
2019-01-27T00:48:12.640Z,12.20
2019-01-27T00:50:41.921Z,12.50
2019-01-27T00:53:11.245Z,12.77
2019-01-27T00:55:40.532Z,11.10
2019-01-27T00:58:09.802Z,14.80
2019-01-27T01:00:39.228Z,11.87
2019-01-27T01:03:08.493Z,15.33
2019-01-27T01:05:37.779Z,11.60
2019-01-27T01:08:08.837Z,13.07
2019-01-27T01:10:38.120Z,10.90
2019-01-27T01:13:08.080Z,11.17
2019-01-27T01:15:37.395Z,10.60
2019-01-27T01:18:06.977Z,11.93
2019-01-27T01:20:36.276Z,11.03
2019-01-27T01:23:06.131Z,11.33
2019-01-27T01:25:35.388Z,10.37
2019-01-27T01:28:05.487Z,11.60
2019-01-27T01:30:35.332Z,20.53
2019-01-27T01:33:05.026Z,13.00
2019-01-27T01:35:34.291Z,9.97
2019-01-27T01:38:03.610Z,10.23
2019-01-27T01:40:32.961Z,10.53
2019-01-27T01:43:02.439Z,10.27
2019-01-27T01:45:33.702Z,10.33
2019-01-27T01:48:03.562Z,10.03
2019-01-27T01:50:32.823Z,9.37
2019-01-27T01:53:02.092Z,11.10
2019-01-27T01:55:31.373Z,11.30
2019-01-27T01:58:00.635Z,9.70
2019-01-27T02:00:30.556Z,10.67
2019-01-27T02:02:59.808Z,12.27
2019-01-27T02:05:29.079Z,25.83
2019-01-27T02:07:58.377Z,23.80
2019-01-27T02:10:27.706Z,11.87
2019-01-27T02:12:56.999Z,9.57
2019-01-27T02:15:58.047Z,21.57
2019-01-27T02:18:27.331Z,9.87
2019-01-27T02:20:56.576Z,12.10
2019-01-27T02:23:25.859Z,9.33
2019-01-27T02:25:55.431Z,9.37
2019-01-27T02:28:24.700Z,9.30
2019-01-27T02:30:54.896Z,10.67
2019-01-27T02:33:24.203Z,8.97
2019-01-27T02:35:53.493Z,8.67
2019-01-27T02:38:22.761Z,9.30
2019-01-27T02:40:52.046Z,10.63
2019-01-27T02:43:21.319Z,8.23
2019-01-27T02:45:50.624Z,9.53
2019-01-27T02:48:19.897Z,9.77
2019-01-27T02:50:49.170Z,9.57
2019-01-27T02:53:18.426Z,8.73
2019-01-27T02:55:47.706Z,8.30
2019-01-27T02:58:16.992Z,8.10
2019-01-27T03:00:46.248Z,9.80
2019-01-27T03:03:15.542Z,7.90
2019-01-27T03:06:02.419Z,9.50
2019-01-27T03:08:42.005Z,14.50
2019-01-27T03:11:11.287Z,8.27
2019-01-27T03:13:40.573Z,8.30
2019-01-27T03:16:10.390Z,7.53
2019-01-27T03:18:39.658Z,8.10
2019-01-27T03:21:08.896Z,8.30
2019-01-27T03:23:38.179Z,7.90
2019-01-27T03:26:07.630Z,15.70
2019-01-27T03:28:37.048Z,8.47
2019-01-27T03:31:06.440Z,8.03
2019-01-27T03:33:35.697Z,7.77
2019-01-27T03:36:04.975Z,9.60
2019-01-27T03:38:34.223Z,9.73
2019-01-27T03:41:03.700Z,7.10
2019-01-27T03:43:32.940Z,9.13
2019-01-27T03:46:02.396Z,7.43
2019-01-27T03:48:31.642Z,7.23
2019-01-27T03:51:01.012Z,10.70
2019-01-27T03:53:30.290Z,7.27
2019-01-27T03:55:59.540Z,8.17
2019-01-27T03:58:28.817Z,7.27
2019-01-27T04:00:58.056Z,7.23
2019-01-27T04:03:27.402Z,7.37
2019-01-27T04:05:56.655Z,7.30
2019-01-27T04:08:25.912Z,7.60
2019-01-27T04:10:55.187Z,7.30
2019-01-27T04:13:24.440Z,8.03
2019-01-27T04:15:53.753Z,7.00
2019-01-27T04:18:23.025Z,7.57
2019-01-27T04:20:52.272Z,7.43
2019-01-27T04:23:21.562Z,7.03
2019-01-27T04:25:50.844Z,7.97
2019-01-27T04:28:20.124Z,7.73
2019-01-27T04:30:49.382Z,6.63
2019-01-27T04:33:18.726Z,7.23
2019-01-27T04:35:47.998Z,7.30
2019-01-27T04:38:17.256Z,11.03
2019-01-27T04:40:47.699Z,6.57
2019-01-27T04:43:16.972Z,12.03
2019-01-27T04:45:46.266Z,7.63
2019-01-27T04:48:15.514Z,7.30
2019-01-27T04:50:44.789Z,6.80
2019-01-27T04:53:14.088Z,7.80
2019-01-27T04:55:43.339Z,7.63
2019-01-27T04:58:12.611Z,7.20
2019-01-27T05:00:41.862Z,7.13
2019-01-27T05:03:29.032Z,6.73
2019-01-27T05:05:58.299Z,6.60
2019-01-27T05:08:27.590Z,7.13
2019-01-27T05:10:56.832Z,6.53
2019-01-27T05:13:26.148Z,6.73
2019-01-27T05:15:55.421Z,6.70
2019-01-27T05:18:24.710Z,7.40
2019-01-27T05:20:54.023Z,7.00
2019-01-27T05:23:24.587Z,5.80
2019-01-27T05:25:53.862Z,6.57
2019-01-27T05:28:23.144Z,6.37
2019-01-27T05:30:52.416Z,6.23
2019-01-27T05:33:21.660Z,6.33
2019-01-27T05:35:50.940Z,6.13
2019-01-27T05:38:20.184Z,5.87
2019-01-27T05:40:49.489Z,5.57
2019-01-27T05:43:18.756Z,6.13
2019-01-27T05:45:48.010Z,5.40
2019-01-27T05:48:18.762Z,4.90
2019-01-27T05:50:48.015Z,5.40
2019-01-27T05:53:17.292Z,4.60
2019-01-27T05:55:46.545Z,4.90
2019-01-27T05:58:15.822Z,5.03
2019-01-27T06:00:46.508Z,4.80
2019-01-27T06:03:15.811Z,4.93
2019-01-27T06:05:46.550Z,4.47
2019-01-27T06:08:15.793Z,5.17
2019-01-27T06:10:45.114Z,4.47
2019-01-27T06:13:14.365Z,4.10
2019-01-27T06:15:43.646Z,4.33
2019-01-27T06:18:12.891Z,4.30
2019-01-27T06:20:42.152Z,4.50
2019-01-27T06:23:11.447Z,4.40
2019-01-27T06:25:40.737Z,3.80
2019-01-27T06:28:10.018Z,4.07
2019-01-27T06:30:39.265Z,4.43
2019-01-27T06:33:15.559Z,3.10
2019-01-27T06:35:44.812Z,3.20
2019-01-27T06:38:14.074Z,2.97
2019-01-27T06:40:43.361Z,2.90
2019-01-27T06:43:12.633Z,3.70
2019-01-27T06:45:41.896Z,2.90
2019-01-27T06:48:11.199Z,3.40
2019-01-27T06:50:41.972Z,2.80
2019-01-27T06:53:11.269Z,3.57
2019-01-27T06:55:40.538Z,2.97
2019-01-27T06:58:10.064Z,2.73
2019-01-27T07:00:51.631Z,3.00
2019-01-27T07:03:33.581Z,3.07
2019-01-27T07:06:08.592Z,2.80
2019-01-27T07:08:47.693Z,3.03
2019-01-27T07:11:39.027Z,2.87
2019-01-27T07:14:24.235Z,2.80
2019-01-27T07:17:11.224Z,3.17
2019-01-27T07:19:55.815Z,2.80
2019-01-27T07:22:42.557Z,2.53
2019-01-27T07:25:31.385Z,3.13
2019-01-27T07:28:19.641Z,3.00
2019-01-27T07:31:12.227Z,2.30
2019-01-27T07:34:00.432Z,3.33
2019-01-27T07:36:54.491Z,2.80
2019-01-27T07:39:56.091Z,3.00
2019-01-27T07:42:43.010Z,2.63
2019-01-27T07:45:36.081Z,2.73
2019-01-27T07:48:24.717Z,3.53
2019-01-27T07:51:18.938Z,3.20
2019-01-27T07:54:10.411Z,2.83
2019-01-27T07:57:04.699Z,3.20
2019-01-27T07:59:40.135Z,3.97
2019-01-27T08:02:20.295Z,3.43
2019-01-27T08:05:14.698Z,2.90
2019-01-27T08:08:02.889Z,2.80
2019-01-27T08:10:54.121Z,3.80
2019-01-27T08:13:48.274Z,3.40
2019-01-27T08:16:39.932Z,3.80
2019-01-27T08:19:24.232Z,3.20
2019-01-27T08:22:04.613Z,3.30
2019-01-27T08:24:55.658Z,3.00
2019-01-27T08:27:39.098Z,3.50
2019-01-27T08:30:40.016Z,3.57
2019-01-27T08:33:26.944Z,3.73
2019-01-27T08:36:15.132Z,3.43
2019-01-27T08:38:49.832Z,3.50
2019-01-27T08:41:34.458Z,3.70
2019-01-27T08:44:32.049Z,3.33
2019-01-27T08:47:02.957Z,3.53
2019-01-27T08:49:33.351Z,3.57
2019-01-27T08:52:02.664Z,3.20
2019-01-27T08:54:31.911Z,3.83
2019-01-27T08:57:01.179Z,3.43
2019-01-27T08:59:30.440Z,2.97
2019-01-27T09:02:19.145Z,3.80
2019-01-27T09:04:53.154Z,3.30
2019-01-27T09:07:59.535Z,3.50
2019-01-27T09:10:47.791Z,2.90
2019-01-27T09:13:34.636Z,3.00
2019-01-27T09:16:12.887Z,2.97
2019-01-27T09:19:07.338Z,3.17
2019-01-27T09:21:52.954Z,3.47
2019-01-27T09:24:53.571Z,2.87
2019-01-27T09:27:30.901Z,2.50
2019-01-27T09:30:09.862Z,3.57
2019-01-27T09:33:07.051Z,2.93
2019-01-27T09:36:13.724Z,2.97
2019-01-27T09:38:49.417Z,3.53
2019-01-27T09:41:26.679Z,3.53
2019-01-27T09:44:13.779Z,2.83
2019-01-27T09:47:11.282Z,2.87
2019-01-27T09:49:47.221Z,2.13
2019-01-27T09:52:23.049Z,2.70
2019-01-27T09:55:08.543Z,3.30
2019-01-27T09:57:56.139Z,2.47
2019-01-27T10:00:45.626Z,7.97
2019-01-27T10:03:32.464Z,5.10
2019-01-27T10:06:20.463Z,3.13
2019-01-27T10:09:14.472Z,2.47
2019-01-27T10:12:01.513Z,2.30
2019-01-27T10:14:50.078Z,2.93
2019-01-27T10:17:30.760Z,2.97
2019-01-27T10:20:17.623Z,2.33
2019-01-27T10:22:59.550Z,2.40
2019-01-27T10:25:46.746Z,2.30
2019-01-27T10:28:33.718Z,5.37
2019-01-27T10:31:21.934Z,2.73
2019-01-27T10:34:13.249Z,4.47
2019-01-27T10:36:59.797Z,2.77
2019-01-27T10:39:48.033Z,2.47
2019-01-27T10:42:26.055Z,3.00
2019-01-27T10:45:27.414Z,3.10
2019-01-27T10:48:18.502Z,2.20
2019-01-27T10:51:16.830Z,2.23
2019-01-27T10:54:05.121Z,1.80
2019-01-27T10:57:08.477Z,2.03
2019-01-27T10:59:53.630Z,2.13
2019-01-27T11:02:40.749Z,2.13
2019-01-27T11:05:30.838Z,2.10
2019-01-27T11:08:19.824Z,1.90
2019-01-27T11:11:08.073Z,1.80
2019-01-27T11:13:50.022Z,2.20
2019-01-27T11:16:38.349Z,2.00
2019-01-27T11:19:34.677Z,1.70
2019-01-27T11:22:32.640Z,1.90
2019-01-27T11:25:19.698Z,2.17
2019-01-27T11:28:04.634Z,2.03
2019-01-27T11:30:58.170Z,2.40
2019-01-27T11:33:34.126Z,2.40
2019-01-27T11:36:31.677Z,1.93
2019-01-27T11:39:19.900Z,1.70
2019-01-27T11:42:08.111Z,2.10
2019-01-27T11:44:55.039Z,2.27
2019-01-27T11:47:43.319Z,1.80
2019-01-27T11:50:17.473Z,1.80
2019-01-27T11:52:51.335Z,1.80
2019-01-27T11:55:20.602Z,1.93
2019-01-27T11:57:49.843Z,2.00
2019-01-27T12:00:23.033Z,2.23
2019-01-27T12:02:52.305Z,1.53
2019-01-27T12:05:22.715Z,1.73
2019-01-27T12:07:51.995Z,1.40
2019-01-27T12:10:21.400Z,1.60
2019-01-27T12:12:50.692Z,1.80
2019-01-27T12:15:21.314Z,1.63
2019-01-27T12:17:50.787Z,1.40
2019-01-27T12:20:20.058Z,1.30
2019-01-27T12:22:49.368Z,1.30
2019-01-27T12:25:18.640Z,1.00
2019-01-27T12:27:47.931Z,1.50
2019-01-27T12:30:18.775Z,1.33
2019-01-27T12:32:48.056Z,1.70
2019-01-27T12:35:17.303Z,1.20
2019-01-27T12:37:46.568Z,1.13
2019-01-27T12:40:18.360Z,0.90
2019-01-27T12:42:47.628Z,0.97
2019-01-27T12:45:17.350Z,1.00
2019-01-27T12:47:46.604Z,1.87
2019-01-27T12:50:17.299Z,1.50
2019-01-27T12:52:48.001Z,10.03
2019-01-27T12:55:17.406Z,3.27
2019-01-27T12:57:46.877Z,0.90
2019-01-27T13:00:22.438Z,1.67
2019-01-27T13:02:51.743Z,1.10
2019-01-27T13:05:21.167Z,0.90
2019-01-27T13:07:50.518Z,0.90
2019-01-27T13:10:19.815Z,1.87
2019-01-27T13:12:49.247Z,0.83
2019-01-27T13:15:19.041Z,0.80
2019-01-27T13:17:48.401Z,0.73
2019-01-27T13:20:17.690Z,0.70
2019-01-27T13:22:47.144Z,1.00
2019-01-27T13:25:16.913Z,0.57
2019-01-27T13:27:46.162Z,0.80
2019-01-27T13:30:18.106Z,0.60
2019-01-27T13:32:47.496Z,0.70
2019-01-27T13:35:17.183Z,0.60
2019-01-27T13:37:46.489Z,0.60
2019-01-27T13:40:18.258Z,1.20
2019-01-27T13:42:47.616Z,0.73
2019-01-27T13:45:19.410Z,0.80
2019-01-27T13:47:48.777Z,1.60
2019-01-27T13:50:18.294Z,0.60
2019-01-27T13:52:47.649Z,0.90
2019-01-27T13:55:20.107Z,0.70
2019-01-27T13:57:49.413Z,0.57
2019-01-27T14:00:24.621Z,0.63
2019-01-27T14:02:53.908Z,0.53
2019-01-27T14:05:23.171Z,0.60
2019-01-27T14:07:52.504Z,0.63
2019-01-27T14:10:23.961Z,0.90
2019-01-27T14:12:53.339Z,1.17
2019-01-27T14:15:25.127Z,0.80
2019-01-27T14:17:54.375Z,0.70
2019-01-27T14:20:23.653Z,0.60
2019-01-27T14:22:52.938Z,0.60
2019-01-27T14:25:43.994Z,0.67
2019-01-27T14:28:13.291Z,0.70
2019-01-27T14:30:44.064Z,0.70
2019-01-27T14:33:13.348Z,0.70
2019-01-27T14:35:42.632Z,0.73
2019-01-27T14:38:11.930Z,0.50
2019-01-27T14:40:41.190Z,0.60
2019-01-27T14:43:10.465Z,0.87
2019-01-27T14:45:41.172Z,0.70
2019-01-27T14:48:10.467Z,0.73
2019-01-27T14:50:42.878Z,2.23
2019-01-27T14:53:12.353Z,0.80
2019-01-27T14:55:43.696Z,0.50
2019-01-27T14:58:12.862Z,0.30
2019-01-27T15:00:43.791Z,0.40
2019-01-27T15:03:14.365Z,0.40
2019-01-27T15:05:43.821Z,0.47
2019-01-27T15:08:13.072Z,0.40
2019-01-27T15:10:43.848Z,0.50
2019-01-27T15:13:13.150Z,0.50
2019-01-27T15:15:42.447Z,0.43
2019-01-27T15:18:11.777Z,0.60
2019-01-27T15:20:47.640Z,0.73
2019-01-27T15:23:16.953Z,0.93
2019-01-27T15:25:46.300Z,0.90
2019-01-27T15:28:15.558Z,0.93
2019-01-27T15:30:44.877Z,0.50
2019-01-27T15:33:14.140Z,0.60
2019-01-27T15:35:43.404Z,0.50
2019-01-27T15:38:12.688Z,0.70
2019-01-27T15:40:41.954Z,0.83
2019-01-27T15:43:11.205Z,0.90
2019-01-27T15:45:40.474Z,0.90
2019-01-27T15:48:09.739Z,0.93
2019-01-27T15:50:38.999Z,0.90
2019-01-27T15:53:08.273Z,1.00
2019-01-27T15:55:38.124Z,1.77
2019-01-27T15:58:07.366Z,0.90
2019-01-27T16:00:37.062Z,1.07
2019-01-27T16:03:06.555Z,1.10
2019-01-27T16:05:35.813Z,1.30
2019-01-27T16:08:05.604Z,1.00
2019-01-27T16:10:34.906Z,1.13
2019-01-27T16:13:04.303Z,1.10
2019-01-27T16:15:35.103Z,1.20
2019-01-27T16:18:05.283Z,1.30
2019-01-27T16:20:34.610Z,1.30
2019-01-27T16:23:15.699Z,1.27
2019-01-27T16:25:44.990Z,1.47
2019-01-27T16:28:14.520Z,2.00
2019-01-27T16:31:05.702Z,1.60
2019-01-27T16:34:01.075Z,1.47
2019-01-27T16:36:31.438Z,1.03
2019-01-27T16:39:00.942Z,1.20
2019-01-27T16:41:30.238Z,1.50
2019-01-27T16:44:00.454Z,1.50
2019-01-27T16:46:29.697Z,1.90
2019-01-27T16:48:58.982Z,2.17
2019-01-27T16:51:28.310Z,2.57
2019-01-27T16:53:57.582Z,2.37
2019-01-27T16:56:26.927Z,2.23
2019-01-27T16:58:59.424Z,2.50
2019-01-27T17:01:27.215Z,2.20
2019-01-27T17:03:56.462Z,1.93
2019-01-27T17:06:25.745Z,2.30
2019-01-27T17:08:55.011Z,2.43
2019-01-27T17:11:24.295Z,2.80
2019-01-27T17:13:53.582Z,3.03
2019-01-27T17:16:22.890Z,3.20
2019-01-27T17:18:53.712Z,2.87
2019-01-27T17:21:22.978Z,2.60
2019-01-27T17:23:52.262Z,1.70
2019-01-27T17:26:21.507Z,1.50
2019-01-27T17:28:50.782Z,1.77
2019-01-27T17:31:20.548Z,2.53
2019-01-27T17:33:50.186Z,1.80
2019-01-27T17:36:19.690Z,2.03
2019-01-27T17:38:48.970Z,1.63
2019-01-27T17:41:18.710Z,2.50
2019-01-27T17:43:47.993Z,2.30
2019-01-27T17:46:17.271Z,2.20
2019-01-27T17:48:46.529Z,2.10
2019-01-27T17:51:15.931Z,2.17
2019-01-27T17:53:50.426Z,1.90
2019-01-27T17:56:19.795Z,2.17
2019-01-27T17:58:58.423Z,2.63
2019-01-27T18:02:04.856Z,2.67
2019-01-27T18:04:52.175Z,2.17
2019-01-27T18:07:43.299Z,2.93
2019-01-27T18:10:32.811Z,1.80
2019-01-27T18:13:09.100Z,2.40
2019-01-27T18:15:38.390Z,2.03
2019-01-27T18:18:07.822Z,1.87
2019-01-27T18:20:37.156Z,1.73
2019-01-27T18:23:06.513Z,1.70
2019-01-27T18:25:43.512Z,1.40
2019-01-27T18:28:22.331Z,1.30
2019-01-27T18:30:51.662Z,1.60
2019-01-27T18:33:22.199Z,1.97
2019-01-27T18:35:51.997Z,2.57
2019-01-27T18:38:21.288Z,2.03
2019-01-27T18:40:50.563Z,1.87
2019-01-27T18:43:19.833Z,1.73
2019-01-27T18:45:49.829Z,1.40
2019-01-27T18:48:19.103Z,1.20
2019-01-27T18:50:49.555Z,1.60
2019-01-27T18:53:36.893Z,1.40
2019-01-27T18:56:20.343Z,1.93
2019-01-27T18:59:09.132Z,1.77
2019-01-27T19:02:00.435Z,1.57
2019-01-27T19:04:38.152Z,1.67
2019-01-27T19:07:47.768Z,1.40
2019-01-27T19:10:36.344Z,2.07
2019-01-27T19:13:22.187Z,2.00
2019-01-27T19:16:07.299Z,2.20
2019-01-27T19:18:54.287Z,1.50
2019-01-27T19:21:35.784Z,1.50
2019-01-27T19:24:19.986Z,1.40
2019-01-27T19:27:14.136Z,1.00
2019-01-27T19:29:50.363Z,1.10
2019-01-27T19:32:34.699Z,1.20
2019-01-27T19:35:23.128Z,1.20
2019-01-27T19:38:11.822Z,1.10
2019-01-27T19:40:53.045Z,1.00
2019-01-27T19:43:38.269Z,1.30
2019-01-27T19:46:27.526Z,1.00
2019-01-27T19:49:22.012Z,1.40
2019-01-27T19:52:04.662Z,1.00
2019-01-27T19:54:46.662Z,1.20
2019-01-27T19:57:34.000Z,1.20
2019-01-27T20:00:19.906Z,1.30
2019-01-27T20:02:58.829Z,1.37
2019-01-27T20:05:47.059Z,1.30
2019-01-27T20:08:39.401Z,1.30
2019-01-27T20:11:30.714Z,1.23
2019-01-27T20:14:20.276Z,1.33
2019-01-27T20:17:11.150Z,1.17
2019-01-27T20:19:48.643Z,1.10
2019-01-27T20:22:35.486Z,1.20
2019-01-27T20:25:14.827Z,1.60
2019-01-27T20:27:53.286Z,1.47
2019-01-27T20:30:41.518Z,1.30
2019-01-27T20:33:40.285Z,2.20
2019-01-27T20:36:34.654Z,1.23
2019-01-27T20:39:22.220Z,1.23
2019-01-27T20:41:58.622Z,1.40
2019-01-27T20:44:37.105Z,1.10
2019-01-27T20:47:12.001Z,1.10
2019-01-27T20:50:00.281Z,1.67
2019-01-27T20:52:35.506Z,3.83
2019-01-27T20:55:25.257Z,1.30
2019-01-27T20:58:01.295Z,1.40
2019-01-27T21:00:55.468Z,1.20
2019-01-27T21:03:48.570Z,1.57
2019-01-27T21:06:35.375Z,1.53
2019-01-27T21:09:26.690Z,1.40
2019-01-27T21:12:12.329Z,1.20
2019-01-27T21:15:06.746Z,1.30
2019-01-27T21:17:53.855Z,1.40
2019-01-27T21:20:24.859Z,1.20
2019-01-27T21:22:54.359Z,1.30
2019-01-27T21:25:23.947Z,1.20
2019-01-27T21:27:55.021Z,1.10
2019-01-27T21:30:25.935Z,1.00
2019-01-27T21:32:56.901Z,0.87
2019-01-27T21:35:26.506Z,1.00
2019-01-27T21:37:55.758Z,0.80
2019-01-27T21:40:25.263Z,0.90
2019-01-27T21:42:54.733Z,0.90
2019-01-27T21:45:24.440Z,0.80
2019-01-27T21:47:56.240Z,0.90
2019-01-27T21:50:26.274Z,1.43
2019-01-27T21:52:57.399Z,1.30
2019-01-27T21:55:27.679Z,1.00
2019-01-27T21:58:17.888Z,0.90
2019-01-27T22:00:49.481Z,1.10
2019-01-27T22:03:19.091Z,0.90
2019-01-27T22:05:48.425Z,0.90
2019-01-27T22:08:18.365Z,0.80
2019-01-27T22:10:48.886Z,0.80
2019-01-27T22:13:18.230Z,0.90
2019-01-27T22:15:49.305Z,0.70
2019-01-27T22:18:19.181Z,0.80
2019-01-27T22:20:48.459Z,0.90
2019-01-27T22:23:18.460Z,0.90
2019-01-27T22:25:47.774Z,0.93
2019-01-27T22:28:17.787Z,0.70
2019-01-27T22:30:48.621Z,0.83
2019-01-27T22:33:18.134Z,0.80
2019-01-27T22:35:48.014Z,0.90
2019-01-27T22:38:17.315Z,1.00
2019-01-27T22:40:47.081Z,0.60
2019-01-27T22:43:16.868Z,0.90
2019-01-27T22:45:47.403Z,0.80
2019-01-27T22:48:17.066Z,0.70
2019-01-27T22:50:46.315Z,0.80
2019-01-27T22:53:17.082Z,0.60
2019-01-27T22:55:46.323Z,0.60
2019-01-27T22:58:15.615Z,0.50
2019-01-27T23:00:59.503Z,0.50
2019-01-27T23:03:30.761Z,0.53
2019-01-27T23:06:00.042Z,0.50
2019-01-27T23:08:29.417Z,1.40
2019-01-27T23:10:59.750Z,0.90
2019-01-27T23:13:29.004Z,0.80
2019-01-27T23:15:58.303Z,0.93
2019-01-27T23:18:27.572Z,0.83
2019-01-27T23:20:56.858Z,0.80
2019-01-27T23:23:26.133Z,0.93
2019-01-27T23:25:55.377Z,0.77
2019-01-27T23:28:24.801Z,0.77
2019-01-27T23:30:54.066Z,0.87
2019-01-27T23:33:23.445Z,1.00
2019-01-27T23:35:52.690Z,1.30
2019-01-27T23:38:21.982Z,1.20
2019-01-27T23:40:51.240Z,1.37
2019-01-27T23:43:20.486Z,1.27
2019-01-27T23:45:49.763Z,1.50
2019-01-27T23:48:19.370Z,1.70
2019-01-27T23:50:48.639Z,1.80
2019-01-27T23:53:17.885Z,1.93
2019-01-27T23:55:47.155Z,1.80
2019-01-27T23:58:16.426Z,1.97
